Time,TemperatureF,DewpointF,PressureIn,WindDirection,WindDirectionDegrees,WindSpeedMPH,WindSpeedGustMPH,Humidity,HourlyPrecipIn,Conditions,Clouds,dailyrainin,SoftwareType,DateUTC
2013-08-04 00:00:00,56.8,54.5,30.02,ESE,112,0.0,0.0,92,0.00,,---,0.00,VWS V14.01,2013-08-04 05:00:00,
2013-08-04 00:30:00,55.8,53.8,30.03,ESE,112,0.0,0.0,93,0.00,,---,0.00,VWS V14.01,2013-08-04 05:30:00,
2013-08-04 01:00:00,55.7,53.7,30.03,ESE,112,0.0,0.0,93,0.00,,---,0.00,VWS V14.01,2013-08-04 06:00:00,
2013-08-04 01:30:00,57.0,54.7,30.03,North,5,0.0,0.0,92,0.00,,---,0.00,VWS V14.01,2013-08-04 06:30:00,
2013-08-04 02:00:00,57.2,53.1,30.05,North,5,0.0,0.0,86,0.00,,---,0.00,VWS V14.01,2013-08-04 07:00:00,
2013-08-04 02:30:00,57.0,52.9,30.05,North,11,0.0,0.0,86,0.00,,---,0.00,VWS V14.01,2013-08-04 07:30:00,
2013-08-04 03:00:00,56.6,52.5,30.05,North,11,0.0,0.0,86,0.00,,---,0.00,VWS V14.01,2013-08-04 08:00:00,
2013-08-04 03:30:00,56.2,52.7,30.06,North,11,0.0,0.0,88,0.00,,---,0.00,VWS V14.01,2013-08-04 08:30:00,
2013-08-04 04:00:00,56.3,53.1,30.06,NNE,20,0.0,0.0,89,0.00,,---,0.00,VWS V14.01,2013-08-04 09:00:00,
2013-08-04 04:30:00,56.2,53.3,30.05,NNE,21,0.0,0.0,90,0.00,,---,0.00,VWS V14.01,2013-08-04 09:30:00,
2013-08-04 05:00:00,55.9,53.3,30.05,NNE,21,0.0,0.0,91,0.00,,---,0.00,VWS V14.01,2013-08-04 10:00:00,
2013-08-04 05:30:00,55.8,53.8,30.07,NNE,21,0.0,0.0,93,0.00,,---,0.00,VWS V14.01,2013-08-04 10:30:00,
2013-08-04 06:00:00,55.6,53.6,30.08,NNE,21,0.0,0.0,93,0.00,,---,0.00,VWS V14.01,2013-08-04 11:00:00,
2013-08-04 06:30:00,56.1,54.4,30.08,NNE,21,0.0,0.0,94,0.00,,---,0.00,VWS V14.01,2013-08-04 11:30:00,
2013-08-04 07:00:00,57.4,55.7,30.09,NNE,21,0.0,0.0,94,0.00,,---,0.00,VWS V14.01,2013-08-04 12:00:00,
2013-08-04 07:30:00,59.9,58.2,30.09,NNE,21,0.0,0.0,94,0.00,,---,0.00,VWS V14.01,2013-08-04 12:30:00,
2013-08-04 08:00:00,62.7,58.5,30.10,SSE,164,0.0,0.0,86,0.00,,---,0.00,VWS V14.01,2013-08-04 13:00:00,
2013-08-04 08:30:00,66.1,58.3,30.11,SW,231,0.0,3.0,76,0.00,,---,0.00,VWS V14.01,2013-08-04 13:30:00,
2013-08-04 09:00:00,66.4,57.5,30.12,ESE,103,6.0,6.0,73,0.00,,---,0.00,VWS V14.01,2013-08-04 14:00:00,
2013-08-04 09:30:00,67.9,57.4,30.13,ESE,121,0.0,6.0,69,0.00,,---,0.00,VWS V14.01,2013-08-04 14:30:00,
2013-08-04 10:00:00,68.8,57.8,30.12,South,185,0.0,6.0,68,0.00,,---,0.00,VWS V14.01,2013-08-04 15:00:00,
2013-08-04 10:30:00,69.0,56.8,30.11,SSE,155,0.0,10.0,65,0.00,,---,0.00,VWS V14.01,2013-08-04 15:30:00,
2013-08-04 11:00:00,69.1,56.4,30.12,SE,140,1.0,6.0,64,0.00,,---,0.00,VWS V14.01,2013-08-04 16:00:00,
2013-08-04 11:30:00,68.6,56.4,30.11,SE,146,3.0,6.0,65,0.00,,---,0.00,VWS V14.01,2013-08-04 16:30:00,
2013-08-04 12:00:00,70.0,56.4,30.11,SE,132,0.0,7.0,62,0.00,,---,0.00,VWS V14.01,2013-08-04 17:00:00,
2013-08-04 12:30:00,69.7,56.6,30.09,West,263,0.0,11.0,63,0.00,,---,0.00,VWS V14.01,2013-08-04 17:30:00,
2013-08-04 13:00:00,70.5,56.9,30.08,SE,145,0.0,9.0,62,0.00,,---,0.00,VWS V14.01,2013-08-04 18:00:00,
2013-08-04 13:30:00,71.2,56.6,30.08,SE,129,3.0,10.0,60,0.00,,---,0.00,VWS V14.01,2013-08-04 18:30:00,
2013-08-04 14:00:00,71.0,56.9,30.08,SE,131,0.0,11.0,61,0.00,,---,0.00,VWS V14.01,2013-08-04 19:00:00,
2013-08-04 14:30:00,71.0,57.3,30.07,SSE,147,5.0,13.0,62,0.00,,---,0.00,VWS V14.01,2013-08-04 19:30:00,
2013-08-04 15:00:00,71.6,57.0,30.06,South,169,4.0,13.0,60,0.00,,---,0.00,VWS V14.01,2013-08-04 20:00:00,
2013-08-04 15:30:00,72.0,56.4,30.05,SE,141,2.0,11.0,58,0.00,,---,0.00,VWS V14.01,2013-08-04 20:30:00,
2013-08-04 16:00:00,70.3,56.2,30.06,SE,142,0.0,10.0,61,0.00,,---,0.00,VWS V14.01,2013-08-04 21:00:00,
2013-08-04 16:30:00,68.5,56.7,30.07,SE,125,6.0,13.0,66,0.00,,---,0.00,VWS V14.01,2013-08-04 21:30:00,
2013-08-04 17:00:00,67.7,55.5,30.07,SE,139,6.0,10.0,65,0.00,,---,0.00,VWS V14.01,2013-08-04 22:00:00,
2013-08-04 17:30:00,66.6,55.7,30.06,ESE,113,0.0,11.0,68,0.00,,---,0.00,VWS V14.01,2013-08-04 22:30:00,
2013-08-04 18:00:00,65.7,55.7,30.06,SE,132,3.0,8.0,70,0.00,,---,0.00,VWS V14.01,2013-08-04 23:00:00,
2013-08-04 18:30:00,64.7,55.1,30.05,ESE,112,5.0,8.0,71,0.00,,---,0.00,VWS V14.01,2013-08-04 23:30:00,
2013-08-04 19:00:00,64.6,55.8,30.05,ESE,122,0.0,8.0,73,0.00,,---,0.00,VWS V14.01,2013-08-05 00:00:00,
2013-08-04 19:30:00,63.6,55.9,30.04,ESE,121,0.0,4.0,76,0.00,,---,0.00,VWS V14.01,2013-08-05 00:30:00,
2013-08-04 20:00:00,62.9,55.6,30.04,East,96,3.0,4.0,77,0.00,,---,0.00,VWS V14.01,2013-08-05 01:00:00,
2013-08-04 20:30:00,62.2,56.0,30.04,ESE,121,0.0,4.0,80,0.00,,---,0.00,VWS V14.01,2013-08-05 01:30:00,
2013-08-04 21:00:00,62.0,55.8,30.04,ESE,121,0.0,0.0,80,0.00,,---,0.00,VWS V14.01,2013-08-05 02:00:00,
2013-08-04 21:30:00,60.9,55.4,30.03,ESE,121,0.0,0.0,82,0.00,,---,0.00,VWS V14.01,2013-08-05 02:30:00,
2013-08-04 22:00:00,60.2,55.0,30.04,ESE,121,0.0,0.0,83,0.00,,---,0.00,VWS V14.01,2013-08-05 03:00:00,
2013-08-04 22:30:00,58.2,54.0,30.04,ESE,121,0.0,0.0,86,0.00,,---,0.00,VWS V14.01,2013-08-05 03:30:00,
2013-08-04 23:00:00,56.4,53.2,30.04,ESE,121,0.0,0.0,89,0.00,,---,0.00,VWS V14.01,2013-08-05 04:00:00,
2013-08-04 23:30:00,55.4,52.8,30.04,ESE,121,0.0,0.0,91,0.00,,---,0.00,VWS V14.01,2013-08-05 04:30:00,